Cavern City Air Terminal
KCNM : rendu visible

Aérodrome :











RETROUVEZ-NOUS SUR...

 
LOGIN :

S'inscrire | Disclaimer

   EN    FR    IT 

 









Légende :    VFR   VFR Marginal   IFR   IFR Intensif   IFR Très Intensif
Visi : 
Plafond : 
>= 8 km
>= 3000ft
5 à 8 km
1000 à 3000 ft
1500m à 5 km
500 à 1000 ft
800 à 1500m
200 à 500 ft
< 800m
< 200 ft
Symboles :   Orages  Brouillard  Fortes neiges  Fortes précipitations  Vent > 20 kt






- Altitude de l'aérodrome : 3295 ft
- Code IATA : CNM


KCNM - Cavern City Air Terminal

DERNIER METAR :
  • 191553Z AUTO 00000KT 10SM CLR 13/00 A2997 RMK AO2 SLP122 T01280000

METARs EXPIRÉS :
  • 191453Z AUTO 00000KT 10SM CLR 08/01 A2998 RMK AO2 SLP129 T00830006 53010
  • 191353Z AUTO 27003KT 10SM CLR 06/M01 A2997 RMK AO2 SLP128 T00561006

TAF KCNM
Valide du 19 à 12h jusqu'au 20 à 12h UTC


191120Z 1912/2012 34004KT P6SM BKN250
FM191900 17011KT P6SM BKN250
FM200100 21008KT P6SM BKN100



MET'MAP, la Météo Aéronautique d'un coup d'oeil ! - Copyright ORBIFLY Décembre 2007 - Disclaimer

ORBIFLY MET'MAP TEAM :

Programmation & Développement : Alexandra Zaïnal
Conception & Développement : Baudouin d'Aumeries
Co-Programmation & Développement : Marc-Olivier Méhu
Soutien technique & logistique : Manuel Goepfert

Contact : metmap@orbifly.com




SOURCES & CREDITS :

   NOAA       Earth
Advisory